Time;durP1;ratioP1;P1;durP2;ratioP2;P2;SDS_P1;SDS_P2;PMS_P1;PMS_P2;Temp;Humidity;BMP_temperature;BMP_pressure;BME280_temperature;BME280_humidity;BME280_pressure;Samples;Min_cycle;Max_cycle;Signal;HPM_P1;HPM_P2
2023/08/20 00:02:13;;;;;;;5.22;3.40;;;;;;;;;;4992525;28;20019;-46
2023/08/20 00:04:40;;;;;;;4.70;3.58;;;;;;;;;;4995996;28;20030;-50
2023/08/20 00:07:07;;;;;;;5.88;3.40;;;;;;;;;;4995075;28;20026;-49
2023/08/20 00:09:33;;;;;;;5.80;3.70;;;;;;;;;;4994253;28;20057;-47
2023/08/20 00:11:58;;;;;;;7.63;3.72;;;;;;;;;;4994270;28;20444;-49
2023/08/20 00:14:58;;;;;;;4.00;3.42;;;;;;;;;;4995544;28;20073;-50
2023/08/20 00:17:26;;;;;;;4.93;3.97;;;;;;;;;;4994617;28;20030;-41
2023/08/20 00:19:55;;;;;;;5.55;3.50;;;;;;;;;;4988175;28;20034;-46
2023/08/20 00:22:22;;;;;;;7.72;3.85;;;;;;;;;;4996247;28;20022;-49
2023/08/20 00:24:48;;;;;;;8.18;3.25;;;;;;;;;;4980925;28;20039;-46
2023/08/20 00:27:14;;;;;;;6.38;3.47;;;;;;;;;;4980881;28;20062;-50
2023/08/20 00:29:39;;;;;;;4.28;3.15;;;;;;;;;;4986958;28;20488;-47
2023/08/20 00:32:04;;;;;;;5.88;3.58;;;;;;;;;;4999349;28;20081;-51
2023/08/20 00:34:30;;;;;;;5.88;3.28;;;;;;;;;;4999693;28;20057;-48
2023/08/20 00:36:55;;;;;;;4.53;3.70;;;;;;;;;;4997729;28;20054;-48
2023/08/20 00:39:21;;;;;;;5.35;3.95;;;;;;;;;;4998418;28;20096;-47
2023/08/20 00:41:46;;;;;;;5.60;3.75;;;;;;;;;;4999704;28;20034;-50
2023/08/20 00:44:11;;;;;;;7.30;3.35;;;;;;;;;;5000036;28;20039;-50
2023/08/20 00:46:37;;;;;;;9.07;3.75;;;;;;;;;;5006454;28;20026;-46
2023/08/20 00:49:02;;;;;;;5.65;3.50;;;;;;;;;;4994676;28;20042;-48
2023/08/20 00:51:28;;;;;;;5.68;3.60;;;;;;;;;;4996278;28;20053;-47
2023/08/20 00:53:55;;;;;;;7.53;3.58;;;;;;;;;;4997699;28;20034;-49
2023/08/20 00:56:21;;;;;;;7.18;4.05;;;;;;;;;;4999915;28;20056;-48
2023/08/20 00:58:46;;;;;;;10.73;3.80;;;;;;;;;;4996508;28;20039;-48
2023/08/20 01:01:11;;;;;;;5.32;3.80;;;;;;;;;;4998681;28;20033;-51
2023/08/20 01:03:37;;;;;;;4.90;3.50;;;;;;;;;;4995983;28;20054;-48
2023/08/20 01:06:16;;;;;;;9.35;3.72;;;;;;;;;;4998351;28;20047;-52
2023/08/20 01:08:46;;;;;;;6.78;4.35;;;;;;;;;;4994351;28;20150;-49
2023/08/20 01:11:29;;;;;;;17.25;4.15;;;;;;;;;;4997607;28;20061;-48
2023/08/20 01:13:55;;;;;;;8.07;4.90;;;;;;;;;;4998678;28;20045;-52
2023/08/20 01:16:21;;;;;;;10.65;3.70;;;;;;;;;;4999639;28;20022;-47
2023/08/20 01:18:47;;;;;;;7.07;4.03;;;;;;;;;;4996566;28;20431;-50
2023/08/20 01:21:29;;;;;;;7.40;4.18;;;;;;;;;;4998135;28;20084;-47
2023/08/20 01:24:22;;;;;;;7.03;4.05;;;;;;;;;;4993411;28;20073;-50
2023/08/20 01:27:00;;;;;;;8.73;4.10;;;;;;;;;;4993109;28;20062;-49
2023/08/20 01:29:26;;;;;;;10.95;4.20;;;;;;;;;;4997414;28;20177;-47
2023/08/20 01:31:53;;;;;;;9.02;3.80;;;;;;;;;;4995300;28;20038;-53
2023/08/20 01:34:19;;;;;;;13.82;4.07;;;;;;;;;;4997148;28;20106;-51
2023/08/20 01:36:44;;;;;;;7.18;3.80;;;;;;;;;;4998782;28;20800;-52
2023/08/20 01:39:10;;;;;;;4.50;3.70;;;;;;;;;;4996871;28;20390;-49
2023/08/20 01:41:35;;;;;;;6.82;3.85;;;;;;;;;;4996268;28;20523;-51
2023/08/20 01:44:01;;;;;;;7.20;3.92;;;;;;;;;;4997995;28;20500;-48
2023/08/20 01:46:26;;;;;;;7.78;3.67;;;;;;;;;;4998761;28;20400;-48
2023/08/20 01:48:51;;;;;;;5.90;3.67;;;;;;;;;;4994761;28;20509;-50
2023/08/20 01:51:17;;;;;;;6.75;3.90;;;;;;;;;;4997228;28;20035;-49
2023/08/20 01:53:42;;;;;;;8.70;3.58;;;;;;;;;;4995970;28;20038;-49
2023/08/20 01:56:12;;;;;;;7.70;3.65;;;;;;;;;;4998776;28;20030;-50
2023/08/20 01:58:37;;;;;;;5.82;3.88;;;;;;;;;;4995387;28;20062;-50
2023/08/20 02:01:03;;;;;;;4.18;3.63;;;;;;;;;;4995948;28;20085;-49
2023/08/20 02:03:28;;;;;;;8.52;3.97;;;;;;;;;;4994391;28;20049;-51
2023/08/20 02:05:54;;;;;;;5.95;3.78;;;;;;;;;;4989355;28;20094;-49
2023/08/20 02:08:20;;;;;;;6.30;3.97;;;;;;;;;;4990542;28;20126;-49
2023/08/20 02:10:45;;;;;;;5.88;4.13;;;;;;;;;;4987433;28;20031;-46
2023/08/20 02:13:10;;;;;;;8.05;3.80;;;;;;;;;;4997578;28;20043;-48
2023/08/20 02:15:36;;;;;;;9.40;3.97;;;;;;;;;;4997772;28;20022;-48
2023/08/20 02:18:02;;;;;;;4.13;3.78;;;;;;;;;;4994405;28;20039;-48
2023/08/20 02:20:28;;;;;;;4.18;3.50;;;;;;;;;;4996678;28;20070;-50
2023/08/20 02:22:53;;;;;;;6.68;3.55;;;;;;;;;;4997603;28;20030;-46
2023/08/20 02:25:19;;;;;;;4.63;3.88;;;;;;;;;;4996138;28;20057;-49
2023/08/20 02:27:44;;;;;;;4.55;3.70;;;;;;;;;;4995577;28;20038;-48
2023/08/20 02:30:13;;;;;;;5.95;3.53;;;;;;;;;;4995868;28;20022;-49
2023/08/20 02:32:39;;;;;;;7.97;4.35;;;;;;;;;;4996373;28;20069;-52
2023/08/20 02:35:05;;;;;;;6.53;3.80;;;;;;;;;;4996469;28;20026;-50
2023/08/20 02:37:31;;;;;;;5.13;3.45;;;;;;;;;;4996861;28;20100;-50
2023/08/20 02:39:57;;;;;;;5.28;3.55;;;;;;;;;;4993722;28;20041;-52
2023/08/20 02:42:22;;;;;;;6.22;3.92;;;;;;;;;;4997990;28;20027;-52
2023/08/20 02:44:48;;;;;;;10.25;3.53;;;;;;;;;;4999874;28;20043;-50
2023/08/20 02:47:13;;;;;;;7.93;3.80;;;;;;;;;;4999173;28;20112;-50
2023/08/20 02:49:38;;;;;;;11.27;4.47;;;;;;;;;;4987687;28;20081;-49
2023/08/20 02:52:04;;;;;;;4.53;3.38;;;;;;;;;;4995539;28;20034;-50
2023/08/20 02:54:31;;;;;;;8.65;3.85;;;;;;;;;;4996222;28;20034;-48
2023/08/20 02:56:57;;;;;;;6.28;3.97;;;;;;;;;;4995207;28;20026;-50
2023/08/20 02:59:23;;;;;;;9.50;3.70;;;;;;;;;;4995661;28;20566;-48
2023/08/20 03:01:48;;;;;;;6.22;3.42;;;;;;;;;;4997265;28;20044;-48
2023/08/20 03:04:14;;;;;;;7.93;3.65;;;;;;;;;;4990064;28;20045;-47
2023/08/20 03:06:39;;;;;;;5.43;3.22;;;;;;;;;;4997278;28;20027;-50
2023/08/20 03:09:05;;;;;;;3.58;3.15;;;;;;;;;;4992198;28;20038;-46
2023/08/20 03:11:31;;;;;;;7.88;3.70;;;;;;;;;;4997224;28;20085;-47
2023/08/20 03:13:56;;;;;;;4.97;3.33;;;;;;;;;;4999542;28;20050;-49
2023/08/20 03:16:22;;;;;;;7.03;3.33;;;;;;;;;;4997088;28;20057;-52
2023/08/20 03:18:48;;;;;;;5.13;3.60;;;;;;;;;;4995444;28;20046;-48
2023/08/20 03:21:13;;;;;;;10.70;3.75;;;;;;;;;;4995569;28;20026;-48
2023/08/20 03:23:38;;;;;;;6.43;3.50;;;;;;;;;;4992537;28;20035;-51
2023/08/20 03:26:04;;;;;;;5.55;3.42;;;;;;;;;;4996762;28;20105;-47
2023/08/20 03:28:29;;;;;;;7.45;3.85;;;;;;;;;;4996601;28;20037;-49
2023/08/20 03:30:55;;;;;;;5.68;3.70;;;;;;;;;;4987208;28;20038;-50
2023/08/20 03:33:20;;;;;;;4.28;3.60;;;;;;;;;;5001723;28;20041;-47
2023/08/20 03:35:46;;;;;;;7.10;3.55;;;;;;;;;;4984485;28;20547;-51
2023/08/20 03:38:11;;;;;;;5.75;3.22;;;;;;;;;;4994791;28;20050;-51
2023/08/20 03:40:36;;;;;;;4.72;3.45;;;;;;;;;;4994667;28;20093;-48
2023/08/20 03:43:02;;;;;;;10.43;3.80;;;;;;;;;;4995390;28;20046;-49
2023/08/20 03:45:29;;;;;;;6.72;3.60;;;;;;;;;;4996828;28;20033;-51
2023/08/20 03:47:55;;;;;;;4.20;3.50;;;;;;;;;;4993530;28;20540;-51
2023/08/20 03:50:20;;;;;;;3.72;3.17;;;;;;;;;;4991730;28;20362;-51
2023/08/20 03:52:46;;;;;;;3.90;3.40;;;;;;;;;;4995383;28;20042;-50
2023/08/20 03:55:11;;;;;;;11.93;3.50;;;;;;;;;;4995904;28;20035;-50
2023/08/20 03:57:36;;;;;;;4.18;3.15;;;;;;;;;;4994437;28;20110;-48
2023/08/20 04:00:03;;;;;;;4.55;3.30;;;;;;;;;;4995255;28;20022;-51
2023/08/20 04:02:29;;;;;;;3.63;3.17;;;;;;;;;;4993418;28;20026;-48
2023/08/20 04:04:57;;;;;;;4.80;3.80;;;;;;;;;;4992621;28;20023;-48
2023/08/20 04:07:22;;;;;;;10.15;3.55;;;;;;;;;;4995469;28;20030;-47
2023/08/20 04:09:47;;;;;;;12.82;4.10;;;;;;;;;;4993569;28;20114;-48
2023/08/20 04:12:13;;;;;;;6.90;3.65;;;;;;;;;;4996279;28;20030;-50
2023/08/20 04:14:39;;;;;;;16.92;3.63;;;;;;;;;;4990033;28;20066;-50
2023/08/20 04:17:04;;;;;;;3.80;3.30;;;;;;;;;;4996054;28;20023;-48
2023/08/20 04:19:29;;;;;;;4.57;3.50;;;;;;;;;;4991210;28;20046;-49
2023/08/20 04:21:55;;;;;;;6.57;3.20;;;;;;;;;;4996080;28;20030;-48
2023/08/20 04:24:20;;;;;;;5.70;3.13;;;;;;;;;;4995901;28;20090;-49
2023/08/20 04:26:46;;;;;;;10.05;3.47;;;;;;;;;;4995973;28;20030;-47
2023/08/20 04:29:11;;;;;;;4.15;3.17;;;;;;;;;;4993499;28;21142;-50
2023/08/20 04:31:37;;;;;;;6.93;3.40;;;;;;;;;;4994263;28;20026;-47
2023/08/20 04:34:02;;;;;;;9.05;3.70;;;;;;;;;;4995753;28;20039;-46
2023/08/20 04:36:27;;;;;;;11.07;3.83;;;;;;;;;;4994860;28;20533;-48
2023/08/20 04:38:53;;;;;;;5.72;4.03;;;;;;;;;;4993792;28;20042;-46
2023/08/20 04:41:18;;;;;;;8.80;3.58;;;;;;;;;;4993324;28;20045;-46
2023/08/20 04:43:44;;;;;;;8.98;3.22;;;;;;;;;;4995738;28;20072;-48
2023/08/20 04:46:09;;;;;;;8.85;3.75;;;;;;;;;;4991831;28;20082;-47
2023/08/20 04:48:34;;;;;;;10.55;4.07;;;;;;;;;;4999190;28;20041;-46
2023/08/20 04:51:00;;;;;;;4.55;3.03;;;;;;;;;;4994563;28;20034;-46
2023/08/20 04:53:26;;;;;;;10.70;3.70;;;;;;;;;;4995588;28;20031;-48
2023/08/20 04:55:51;;;;;;;8.90;3.15;;;;;;;;;;4994838;28;20022;-49
2023/08/20 04:58:16;;;;;;;3.25;2.95;;;;;;;;;;4994933;28;20049;-47
2023/08/20 05:00:42;;;;;;;4.30;3.15;;;;;;;;;;4993404;28;20500;-49
2023/08/20 05:03:07;;;;;;;5.90;3.58;;;;;;;;;;4995295;28;20034;-51
2023/08/20 05:05:33;;;;;;;4.25;3.38;;;;;;;;;;4992307;28;20029;-48
2023/08/20 05:07:58;;;;;;;5.82;3.20;;;;;;;;;;4992439;28;20117;-48
2023/08/20 05:10:23;;;;;;;8.25;3.80;;;;;;;;;;4993863;28;20034;-49
2023/08/20 05:12:49;;;;;;;5.90;3.45;;;;;;;;;;4995328;28;20036;-49
2023/08/20 05:15:14;;;;;;;3.65;3.38;;;;;;;;;;4994227;28;20546;-50
2023/08/20 05:17:40;;;;;;;5.45;3.40;;;;;;;;;;4998541;28;20037;-48
2023/08/20 05:20:06;;;;;;;7.50;3.78;;;;;;;;;;4999533;28;20067;-46
2023/08/20 05:22:31;;;;;;;7.05;3.90;;;;;;;;;;4998152;28;20503;-49
2023/08/20 05:24:56;;;;;;;6.80;3.72;;;;;;;;;;4996335;28;20042;-50
2023/08/20 05:27:22;;;;;;;6.22;3.88;;;;;;;;;;4998826;28;20045;-51
2023/08/20 05:29:47;;;;;;;9.32;3.45;;;;;;;;;;4995532;28;20030;-48
2023/08/20 05:32:14;;;;;;;9.30;3.38;;;;;;;;;;4997025;28;20038;-47
2023/08/20 05:34:40;;;;;;;6.47;3.55;;;;;;;;;;4997642;28;20030;-48
2023/08/20 05:37:05;;;;;;;4.28;3.95;;;;;;;;;;4999039;28;20048;-52
2023/08/20 05:39:36;;;;;;;7.80;3.20;;;;;;;;;;4997023;28;20045;-46
2023/08/20 05:42:02;;;;;;;8.45;3.47;;;;;;;;;;4996206;28;20083;-49
2023/08/20 05:44:27;;;;;;;12.50;3.55;;;;;;;;;;4996142;28;20129;-48
2023/08/20 05:46:52;;;;;;;10.40;3.58;;;;;;;;;;4998616;28;20049;-46
2023/08/20 05:49:18;;;;;;;6.55;3.42;;;;;;;;;;4997514;28;20065;-46
2023/08/20 05:51:44;;;;;;;3.63;3.28;;;;;;;;;;4992166;28;20086;-48
2023/08/20 05:54:09;;;;;;;5.00;3.28;;;;;;;;;;4996924;28;20042;-46
2023/08/20 05:56:35;;;;;;;9.55;3.38;;;;;;;;;;4998469;28;20026;-47
2023/08/20 05:59:00;;;;;;;6.78;3.63;;;;;;;;;;4998415;28;20046;-49
2023/08/20 06:01:26;;;;;;;13.32;3.35;;;;;;;;;;4995295;28;20072;-52
2023/08/20 06:03:51;;;;;;;7.80;3.70;;;;;;;;;;4996548;28;20129;-50
2023/08/20 06:06:16;;;;;;;9.30;3.30;;;;;;;;;;4995918;28;20031;-48
2023/08/20 06:08:42;;;;;;;6.05;3.28;;;;;;;;;;4993775;28;20046;-51
2023/08/20 06:11:07;;;;;;;5.43;3.25;;;;;;;;;;4997580;28;20030;-50
2023/08/20 06:13:32;;;;;;;4.38;3.17;;;;;;;;;;4996767;28;20034;-49
2023/08/20 06:15:58;;;;;;;7.82;2.90;;;;;;;;;;4998029;28;20034;-48
2023/08/20 06:18:23;;;;;;;5.07;3.60;;;;;;;;;;4991348;28;20051;-51
2023/08/20 06:20:49;;;;;;;6.75;3.33;;;;;;;;;;4996358;28;20034;-49
2023/08/20 06:23:14;;;;;;;4.55;3.10;;;;;;;;;;4995069;28;20034;-50
2023/08/20 06:25:39;;;;;;;5.57;3.10;;;;;;;;;;4998003;28;20081;-47
2023/08/20 06:28:05;;;;;;;8.95;3.63;;;;;;;;;;4996949;28;20042;-51
2023/08/20 06:30:30;;;;;;;8.13;3.30;;;;;;;;;;4997028;28;20026;-49
2023/08/20 06:32:56;;;;;;;6.82;3.30;;;;;;;;;;4996208;28;20168;-47
2023/08/20 06:35:21;;;;;;;8.57;3.33;;;;;;;;;;4996249;28;20097;-47
2023/08/20 06:37:46;;;;;;;9.18;3.30;;;;;;;;;;4996269;28;20045;-47
2023/08/20 06:40:13;;;;;;;7.63;3.10;;;;;;;;;;4991942;28;20034;-47
2023/08/20 06:42:39;;;;;;;8.85;3.05;;;;;;;;;;4990472;28;20057;-49
2023/08/20 06:45:05;;;;;;;9.32;3.35;;;;;;;;;;4992670;28;20433;-47
2023/08/20 06:47:30;;;;;;;5.78;3.10;;;;;;;;;;4990999;28;20031;-46
2023/08/20 06:49:55;;;;;;;6.30;3.20;;;;;;;;;;4992572;28;20022;-48
2023/08/20 06:52:21;;;;;;;3.80;3.08;;;;;;;;;;4996499;28;20748;-48
2023/08/20 06:54:46;;;;;;;5.57;3.05;;;;;;;;;;4983869;28;20444;-49
2023/08/20 06:57:12;;;;;;;5.80;3.08;;;;;;;;;;4991591;28;20030;-51
2023/08/20 06:59:37;;;;;;;8.55;3.28;;;;;;;;;;4991266;28;20037;-50
2023/08/20 07:02:03;;;;;;;9.10;3.50;;;;;;;;;;4992592;28;20022;-53
2023/08/20 07:04:29;;;;;;;5.88;3.45;;;;;;;;;;4992509;28;20047;-49
2023/08/20 07:06:54;;;;;;;4.72;2.70;;;;;;;;;;4997077;28;20025;-49
2023/08/20 07:09:20;;;;;;;4.50;3.22;;;;;;;;;;4997108;28;20124;-51
2023/08/20 07:11:45;;;;;;;5.05;3.20;;;;;;;;;;4995479;28;20424;-52
2023/08/20 07:14:10;;;;;;;5.18;3.17;;;;;;;;;;4995298;28;20564;-52
2023/08/20 07:16:36;;;;;;;5.63;2.67;;;;;;;;;;4994774;28;20468;-50
2023/08/20 07:19:01;;;;;;;10.95;3.00;;;;;;;;;;4996663;28;20493;-48
2023/08/20 07:21:26;;;;;;;4.68;3.00;;;;;;;;;;4995218;28;20493;-50
2023/08/20 07:23:52;;;;;;;5.10;3.42;;;;;;;;;;4995401;28;20077;-47
2023/08/20 07:26:17;;;;;;;6.35;3.40;;;;;;;;;;4996844;28;20805;-53
2023/08/20 07:28:59;;;;;;;10.43;2.67;;;;;;;;;;4995205;28;20046;-51
2023/08/20 07:31:26;;;;;;;7.53;2.95;;;;;;;;;;4992693;28;20034;-47
2023/08/20 07:33:52;;;;;;;4.65;3.00;;;;;;;;;;4996310;28;20030;-51
2023/08/20 07:36:21;;;;;;;3.75;2.72;;;;;;;;;;4996867;28;20523;-47
2023/08/20 07:38:47;;;;;;;4.03;2.92;;;;;;;;;;4996066;28;20042;-49
2023/08/20 07:41:12;;;;;;;3.40;3.10;;;;;;;;;;4994930;28;20041;-51
2023/08/20 07:43:39;;;;;;;7.68;3.47;;;;;;;;;;4996854;28;20053;-48
2023/08/20 07:46:05;;;;;;;5.10;3.20;;;;;;;;;;4993642;28;20109;-47
2023/08/20 07:48:31;;;;;;;4.15;3.05;;;;;;;;;;4996003;28;20396;-49
2023/08/20 07:50:56;;;;;;;4.00;3.00;;;;;;;;;;4996935;28;20108;-52
2023/08/20 07:53:21;;;;;;;5.20;3.05;;;;;;;;;;4995218;28;20086;-50
2023/08/20 07:55:47;;;;;;;3.45;3.15;;;;;;;;;;4994913;28;20077;-50
2023/08/20 07:58:12;;;;;;;5.43;3.08;;;;;;;;;;4991321;28;20045;-49
2023/08/20 08:00:38;;;;;;;6.50;3.75;;;;;;;;;;4991211;28;20701;-51
2023/08/20 08:03:03;;;;;;;12.23;4.03;;;;;;;;;;4996237;28;20452;-50
2023/08/20 08:05:29;;;;;;;7.32;3.72;;;;;;;;;;4996281;28;20114;-50
2023/08/20 08:07:54;;;;;;;6.15;3.97;;;;;;;;;;4994034;28;20489;-51
2023/08/20 08:10:20;;;;;;;6.45;4.00;;;;;;;;;;4993409;28;20362;-51
2023/08/20 08:12:45;;;;;;;7.68;3.40;;;;;;;;;;4994113;28;20042;-48
2023/08/20 08:15:12;;;;;;;4.38;3.70;;;;;;;;;;4995606;28;20026;-48
2023/08/20 08:17:37;;;;;;;8.32;3.92;;;;;;;;;;4994728;28;20038;-48
2023/08/20 08:20:03;;;;;;;8.55;4.32;;;;;;;;;;4995221;28;20022;-46
2023/08/20 08:22:28;;;;;;;6.90;4.35;;;;;;;;;;4995723;28;20449;-52
2023/08/20 08:24:53;;;;;;;8.68;5.07;;;;;;;;;;4993762;28;20022;-49
2023/08/20 08:27:19;;;;;;;13.20;6.32;;;;;;;;;;4996544;28;20473;-48
2023/08/20 08:29:45;;;;;;;8.25;6.35;;;;;;;;;;4995196;28;20038;-50
2023/08/20 08:32:10;;;;;;;10.32;6.10;;;;;;;;;;4994164;28;20030;-50
2023/08/20 08:34:35;;;;;;;6.85;6.22;;;;;;;;;;4997049;28;20062;-49
2023/08/20 08:37:01;;;;;;;12.60;7.55;;;;;;;;;;4994294;28;20057;-50
2023/08/20 08:39:26;;;;;;;18.42;7.10;;;;;;;;;;4994791;28;20038;-53
2023/08/20 08:41:59;;;;;;;13.88;6.93;;;;;;;;;;4995055;28;20022;-51
2023/08/20 08:44:24;;;;;;;10.73;6.35;;;;;;;;;;4994560;28;20109;-50
2023/08/20 08:46:51;;;;;;;17.40;6.13;;;;;;;;;;4996232;28;20030;-50
2023/08/20 08:49:17;;;;;;;12.75;6.55;;;;;;;;;;4995456;28;20035;-53
2023/08/20 08:51:45;;;;;;;12.40;6.55;;;;;;;;;;4994282;28;20042;-48
2023/08/20 08:54:13;;;;;;;11.77;6.28;;;;;;;;;;4998298;28;20381;-52
2023/08/20 08:56:39;;;;;;;11.43;6.30;;;;;;;;;;4998324;28;20026;-51
2023/08/20 08:59:05;;;;;;;8.15;6.20;;;;;;;;;;4998893;28;20041;-51
2023/08/20 09:01:30;;;;;;;9.15;5.93;;;;;;;;;;5000180;28;20053;-48
2023/08/20 09:03:56;;;;;;;15.93;6.40;;;;;;;;;;4997919;28;20038;-52
2023/08/20 09:06:22;;;;;;;7.20;6.00;;;;;;;;;;5003666;28;20034;-51
2023/08/20 09:08:47;;;;;;;11.80;5.60;;;;;;;;;;4985647;28;20031;-51
2023/08/20 09:11:12;;;;;;;9.73;6.93;;;;;;;;;;4995223;28;21693;-49
2023/08/20 09:13:39;;;;;;;13.85;6.03;;;;;;;;;;4997391;28;20505;-49
2023/08/20 09:16:10;;;;;;;12.55;5.50;;;;;;;;;;4997512;28;20030;-50
2023/08/20 09:18:44;;;;;;;17.38;5.55;;;;;;;;;;5003859;28;20034;-52
2023/08/20 09:21:12;;;;;;;5.60;5.00;;;;;;;;;;4999615;28;20022;-53
2023/08/20 09:23:38;;;;;;;13.55;4.70;;;;;;;;;;4997630;28;20481;-50
2023/08/20 09:26:06;;;;;;;7.57;4.40;;;;;;;;;;4999084;28;20058;-50
2023/08/20 09:28:45;;;;;;;11.10;4.70;;;;;;;;;;4997804;28;20038;-52
2023/08/20 09:31:12;;;;;;;7.20;4.63;;;;;;;;;;4997031;28;20038;-50
2023/08/20 09:33:52;;;;;;;6.40;3.58;;;;;;;;;;4997275;28;20481;-52
2023/08/20 09:36:18;;;;;;;9.10;3.60;;;;;;;;;;4998668;28;20061;-49
2023/08/20 09:38:43;;;;;;;7.72;3.22;;;;;;;;;;4998281;28;20065;-53
2023/08/20 09:41:09;;;;;;;9.60;4.10;;;;;;;;;;4995822;28;20535;-54
2023/08/20 09:43:38;;;;;;;9.55;4.13;;;;;;;;;;4990000;28;20069;-51
2023/08/20 09:46:04;;;;;;;5.18;3.15;;;;;;;;;;4995047;28;20030;-50
2023/08/20 09:48:34;;;;;;;6.85;3.08;;;;;;;;;;4993932;28;20083;-50
2023/08/20 09:51:05;;;;;;;5.93;3.33;;;;;;;;;;4998967;28;20022;-49
2023/08/20 09:53:37;;;;;;;5.15;3.45;;;;;;;;;;4994862;28;20119;-51
2023/08/20 09:56:37;;;;;;;12.73;3.80;;;;;;;;;;4998682;28;20030;-50
2023/08/20 09:59:04;;;;;;;6.47;2.53;;;;;;;;;;4995921;28;20040;-51
2023/08/20 10:01:30;;;;;;;9.60;3.13;;;;;;;;;;4998225;28;20081;-52
2023/08/20 10:03:57;;;;;;;11.27;3.83;;;;;;;;;;4991305;28;20488;-51
2023/08/20 10:06:23;;;;;;;7.03;2.92;;;;;;;;;;4995350;28;20022;-49
2023/08/20 10:08:51;;;;;;;6.10;3.60;;;;;;;;;;4997255;28;20046;-52
2023/08/20 10:11:17;;;;;;;8.13;4.30;;;;;;;;;;4996772;28;20038;-49
2023/08/20 10:13:42;;;;;;;10.20;3.90;;;;;;;;;;4996462;28;20038;-53
2023/08/20 10:16:08;;;;;;;7.03;3.72;;;;;;;;;;4991741;28;20030;-54
2023/08/20 10:18:37;;;;;;;8.65;3.67;;;;;;;;;;4992571;28;20071;-53
2023/08/20 10:21:04;;;;;;;9.38;3.58;;;;;;;;;;4997035;28;20053;-54
2023/08/20 10:23:30;;;;;;;3.90;3.00;;;;;;;;;;4996609;28;20034;-49
2023/08/20 10:26:08;;;;;;;8.80;3.35;;;;;;;;;;4996107;28;20079;-48
2023/08/20 10:28:34;;;;;;;10.75;3.40;;;;;;;;;;4991497;28;20668;-48
2023/08/20 10:31:07;;;;;;;7.38;3.47;;;;;;;;;;4996020;28;20022;-49
2023/08/20 10:33:37;;;;;;;10.43;3.67;;;;;;;;;;4992053;28;20400;-52
2023/08/20 10:36:29;;;;;;;11.00;3.13;;;;;;;;;;4995391;28;20054;-53
2023/08/20 10:38:56;;;;;;;7.43;3.40;;;;;;;;;;5005326;28;20047;-54
2023/08/20 10:41:28;;;;;;;9.55;3.58;;;;;;;;;;4997088;28;20054;-54
2023/08/20 10:44:00;;;;;;;10.73;4.05;;;;;;;;;;4988612;28;20062;-54
2023/08/20 10:46:29;;;;;;;16.60;3.60;;;;;;;;;;4996115;28;20050;-54
2023/08/20 10:48:57;;;;;;;4.70;3.22;;;;;;;;;;4997268;28;20042;-55
2023/08/20 10:51:40;;;;;;;6.40;3.85;;;;;;;;;;4995291;28;20036;-52
2023/08/20 10:54:07;;;;;;;8.80;4.35;;;;;;;;;;4990410;28;20061;-52
2023/08/20 10:56:45;;;;;;;6.20;4.30;;;;;;;;;;4987599;28;20025;-49
2023/08/20 10:59:21;;;;;;;9.30;4.25;;;;;;;;;;4995967;28;20121;-54
2023/08/20 11:01:57;;;;;;;14.45;4.78;;;;;;;;;;4997321;28;20069;-55
2023/08/20 11:04:28;;;;;;;6.10;4.10;;;;;;;;;;4992515;28;20038;-51
2023/08/20 11:06:56;;;;;;;8.82;3.70;;;;;;;;;;4997014;28;20038;-53
2023/08/20 11:09:22;;;;;;;9.70;4.07;;;;;;;;;;4994907;28;20073;-54
2023/08/20 11:11:48;;;;;;;8.77;3.70;;;;;;;;;;4997022;28;20117;-54
2023/08/20 11:14:15;;;;;;;13.23;4.05;;;;;;;;;;4989911;28;20062;-50
2023/08/20 11:16:42;;;;;;;17.58;4.30;;;;;;;;;;4994871;28;20109;-50
2023/08/20 11:19:11;;;;;;;10.73;4.43;;;;;;;;;;4994703;28;20068;-54
2023/08/20 11:21:41;;;;;;;13.60;4.13;;;;;;;;;;4996039;28;20105;-49
2023/08/20 11:24:08;;;;;;;13.63;4.43;;;;;;;;;;4993777;28;20043;-55
2023/08/20 11:26:37;;;;;;;12.65;4.35;;;;;;;;;;4994671;28;20385;-52
2023/08/20 11:29:10;;;;;;;8.13;4.80;;;;;;;;;;4989247;28;20030;-52
2023/08/20 11:31:36;;;;;;;11.30;4.20;;;;;;;;;;4995393;28;20473;-52
2023/08/20 11:34:03;;;;;;;17.88;3.90;;;;;;;;;;4985210;28;20090;-53
2023/08/20 11:36:29;;;;;;;8.43;4.05;;;;;;;;;;4967061;28;20141;-53
2023/08/20 11:38:55;;;;;;;7.63;3.70;;;;;;;;;;4985765;28;20093;-53
2023/08/20 11:41:21;;;;;;;8.75;4.70;;;;;;;;;;4996753;28;20035;-53
2023/08/20 11:43:47;;;;;;;16.83;5.70;;;;;;;;;;4991324;28;20129;-51
2023/08/20 11:46:19;;;;;;;10.52;3.90;;;;;;;;;;4991904;28;20034;-50
2023/08/20 11:49:08;;;;;;;7.68;3.83;;;;;;;;;;4990850;28;20038;-53
2023/08/20 11:51:55;;;;;;;9.00;4.45;;;;;;;;;;4993935;28;20042;-51
2023/08/20 11:54:20;;;;;;;7.53;4.70;;;;;;;;;;5024893;28;20065;-53
2023/08/20 11:56:50;;;;;;;11.88;5.20;;;;;;;;;;4991861;28;20445;-53
2023/08/20 11:59:17;;;;;;;12.20;8.20;;;;;;;;;;4990865;28;20038;-54
2023/08/20 12:01:43;;;;;;;17.80;8.00;;;;;;;;;;4990653;28;20075;-52
2023/08/20 12:04:09;;;;;;;10.63;4.25;;;;;;;;;;4995534;28;20467;-50
2023/08/20 12:06:36;;;;;;;8.45;3.90;;;;;;;;;;4990740;28;20030;-52
2023/08/20 12:09:18;;;;;;;9.80;3.97;;;;;;;;;;4992907;28;20038;-52
2023/08/20 12:11:51;;;;;;;15.10;3.72;;;;;;;;;;4994950;28;20026;-52
2023/08/20 12:14:18;;;;;;;6.55;3.55;;;;;;;;;;4992812;28;20035;-51
2023/08/20 12:16:43;;;;;;;9.27;3.53;;;;;;;;;;4995529;28;20164;-53
2023/08/20 12:19:09;;;;;;;11.98;4.00;;;;;;;;;;4994652;28;20054;-52
2023/08/20 12:21:35;;;;;;;10.02;4.38;;;;;;;;;;4994895;28;20030;-53
2023/08/20 12:24:00;;;;;;;5.78;4.15;;;;;;;;;;4995830;28;20031;-53
2023/08/20 12:26:25;;;;;;;6.70;3.78;;;;;;;;;;4995809;28;20101;-51
2023/08/20 12:28:51;;;;;;;9.65;4.10;;;;;;;;;;4998599;28;20085;-51
2023/08/20 12:31:17;;;;;;;13.05;4.35;;;;;;;;;;5000160;28;20512;-52
2023/08/20 12:33:42;;;;;;;13.52;4.70;;;;;;;;;;4995551;28;20144;-53
2023/08/20 12:36:08;;;;;;;15.00;4.30;;;;;;;;;;4999133;28;20046;-50
2023/08/20 12:38:34;;;;;;;14.38;4.38;;;;;;;;;;4998342;28;20132;-52
2023/08/20 12:41:01;;;;;;;15.98;4.47;;;;;;;;;;5000105;28;20415;-51
2023/08/20 12:43:26;;;;;;;10.88;4.60;;;;;;;;;;4991296;28;20078;-50
2023/08/20 12:45:52;;;;;;;8.98;4.13;;;;;;;;;;4997928;28;20065;-54
2023/08/20 12:48:17;;;;;;;15.85;5.57;;;;;;;;;;5003707;28;20034;-52
2023/08/20 12:50:42;;;;;;;17.30;4.88;;;;;;;;;;4997558;28;20022;-51
2023/08/20 12:53:08;;;;;;;13.45;4.20;;;;;;;;;;4999228;28;20037;-52
2023/08/20 12:55:33;;;;;;;10.23;4.00;;;;;;;;;;4997795;28;20112;-55
2023/08/20 12:57:59;;;;;;;10.30;3.60;;;;;;;;;;4997436;28;20042;-51
2023/08/20 13:00:26;;;;;;;14.95;4.68;;;;;;;;;;4992549;28;20093;-52
2023/08/20 13:02:54;;;;;;;11.48;4.63;;;;;;;;;;4999325;28;20041;-54
2023/08/20 13:05:20;;;;;;;15.32;4.35;;;;;;;;;;4997491;28;20643;-54
2023/08/20 13:07:46;;;;;;;9.85;4.03;;;;;;;;;;4998205;28;20042;-52
2023/08/20 13:10:12;;;;;;;7.85;4.25;;;;;;;;;;4997476;28;20165;-53
2023/08/20 13:12:47;;;;;;;10.30;4.35;;;;;;;;;;5013598;28;20030;-48
2023/08/20 13:15:13;;;;;;;13.50;3.97;;;;;;;;;;4997688;28;20052;-55
2023/08/20 13:17:39;;;;;;;14.68;4.35;;;;;;;;;;4998622;28;20473;-52
2023/08/20 13:20:05;;;;;;;9.32;4.43;;;;;;;;;;4998711;28;20077;-54
2023/08/20 13:22:31;;;;;;;10.10;4.30;;;;;;;;;;4996057;28;20397;-54
2023/08/20 13:24:56;;;;;;;10.02;4.05;;;;;;;;;;4998115;28;20026;-49
2023/08/20 13:27:21;;;;;;;7.47;3.80;;;;;;;;;;4999185;28;20034;-55
2023/08/20 13:29:47;;;;;;;9.73;3.53;;;;;;;;;;4997735;28;20096;-53
2023/08/20 13:32:12;;;;;;;11.40;4.15;;;;;;;;;;4996853;28;20022;-54
2023/08/20 13:34:38;;;;;;;8.50;3.97;;;;;;;;;;4998773;28;20027;-54
2023/08/20 13:37:03;;;;;;;9.00;4.28;;;;;;;;;;4993891;28;20049;-53
2023/08/20 13:39:28;;;;;;;10.32;3.88;;;;;;;;;;4997553;28;20050;-55
2023/08/20 13:41:54;;;;;;;12.93;4.30;;;;;;;;;;4997662;28;20484;-52
2023/08/20 13:44:19;;;;;;;8.95;4.03;;;;;;;;;;4995672;28;20488;-54
2023/08/20 13:46:45;;;;;;;14.07;4.22;;;;;;;;;;4995464;28;20038;-52
2023/08/20 13:49:10;;;;;;;17.27;4.32;;;;;;;;;;4989315;28;20035;-50
2023/08/20 13:51:36;;;;;;;9.25;3.60;;;;;;;;;;4996625;28;20026;-52
2023/08/20 13:54:01;;;;;;;6.82;3.92;;;;;;;;;;4998463;28;20042;-53
2023/08/20 13:56:27;;;;;;;8.30;3.58;;;;;;;;;;4998421;28;20093;-52
2023/08/20 13:58:53;;;;;;;7.93;3.67;;;;;;;;;;4998729;28;20100;-50
2023/08/20 14:01:18;;;;;;;9.90;3.60;;;;;;;;;;4994831;28;20022;-52
2023/08/20 14:03:44;;;;;;;5.47;3.78;;;;;;;;;;4991709;28;20537;-51
2023/08/20 14:06:09;;;;;;;10.80;4.00;;;;;;;;;;4993653;28;20522;-49
2023/08/20 14:08:35;;;;;;;5.18;3.85;;;;;;;;;;4994311;28;20042;-53
2023/08/20 14:11:00;;;;;;;11.02;3.70;;;;;;;;;;4998134;28;20030;-53
2023/08/20 14:13:25;;;;;;;11.93;4.00;;;;;;;;;;4995129;28;20050;-50
2023/08/20 14:15:51;;;;;;;4.95;3.80;;;;;;;;;;4995442;28;20065;-52
2023/08/20 14:18:16;;;;;;;10.38;3.97;;;;;;;;;;4987335;28;20068;-54
2023/08/20 14:20:42;;;;;;;8.45;3.97;;;;;;;;;;4994361;28;20034;-53
2023/08/20 14:23:07;;;;;;;8.20;3.50;;;;;;;;;;4996809;28;20034;-53
2023/08/20 14:25:32;;;;;;;8.52;3.55;;;;;;;;;;4996905;28;20019;-54
2023/08/20 14:27:58;;;;;;;5.45;3.42;;;;;;;;;;4997113;28;20496;-50
2023/08/20 14:30:23;;;;;;;7.65;4.03;;;;;;;;;;4996499;28;20089;-51
2023/08/20 14:32:49;;;;;;;11.73;3.50;;;;;;;;;;4991952;28;20085;-54
2023/08/20 14:35:14;;;;;;;7.47;3.45;;;;;;;;;;4991399;28;20074;-49
2023/08/20 14:37:39;;;;;;;6.10;3.50;;;;;;;;;;4991639;28;20026;-51
2023/08/20 14:40:06;;;;;;;4.35;3.20;;;;;;;;;;4994399;28;20073;-52